This is the latest recevied weather packets stored in our database for station/object N5XJB. If no packets are shown the sender has not sent any weather packets the latest 10 day(s).
| Time | Temp. | Humidity | Pressure | Rain* | Wind** | Luminosity | Snow |
|---|---|---|---|---|---|---|---|
| 1777900907 | 21.67° C | 66% | 1016.8 hPa | 0 mm | - | 113 W/m² | - |
| 1777900604 | 21.67° C | 67% | 1016.8 hPa | 0 mm | - | 177 W/m² | - |
| 1777900301 | 21.11° C | 67% | 1016.8 hPa | 0 mm | - | 158 W/m² | - |
| 1777899998 | 20.56° C | 68% | 1016.8 hPa | 0 mm | - | 130 W/m² | - |
| 1777898787 | 16.67° C | 82% | 1016.8 hPa | 0 mm | - | 49 W/m² | - |
| 1777898182 | 15.56° C | 86% | 1016.8 hPa | 0 mm | - | 39 W/m² | - |
| 1777897879 | 15° C | 88% | 1016.8 hPa | 0 mm | - | 34 W/m² | - |
| 1777897575 | 15° C | 88% | 1016.8 hPa | 0 mm | - | 32 W/m² | - |
| 1777897270 | 14.44° C | 88% | 1016.8 hPa | 0 mm | - | 29 W/m² | - |
| 1777896967 | 14.44° C | 89% | 1016.8 hPa | 0 mm | - | 23 W/m² | - |
| 1777896664 | 14.44° C | 89% | 1016.8 hPa | 0 mm | - | 19 W/m² | - |
| 1777896361 | 14.44° C | 89% | 1016.8 hPa | 0 mm | - | 15 W/m² | - |
| 1777896059 | 14.44° C | 89% | 1016.8 hPa | 0 mm | - | 12 W/m² | - |
| 1777895756 | 14.44° C | 89% | 1016.5 hPa | 0 mm | - | 11 W/m² | - |
| 1777895453 | 14.44° C | 89% | 1016.5 hPa | 0 mm | - | 7 W/m² | - |
| 1777895151 | 14.44° C | 89% | 1016.5 hPa | 0 mm | - | 5 W/m² | - |
| 1777894545 | 14.44° C | 88% | 1016.5 hPa | 0 mm | - | 2 W/m² | - |
| 1777894243 | 14.44° C | 89% | 1016.5 hPa | 0 mm | - | 1 W/m² | - |
| 1777893939 | 14.44° C | 89% | 1016.5 hPa | 0 mm | - | 0 W/m² | - |
| 1777893636 | 13.89° C | 90% | 1016.5 hPa | 0 mm | - | 0 W/m² | - |
| 1777893332 | 13.89° C | 90% | 1016.5 hPa | 0 mm | - | 0 W/m² | - |
| 1777893028 | 13.89° C | 90% | 1016.1 hPa | 0 mm | - | 0 W/m² | - |
| 1777892726 | 13.89° C | 90% | 1016.5 hPa | 0 mm | - | 0 W/m² | - |
| 1777892421 | 13.89° C | 90% | 1016.5 hPa | 0 mm | - | 0 W/m² | - |
| 1777892117 | 13.89° C | 89% | 1016.5 hPa | 0 mm | - | 0 W/m² | - |
* Rain latest hour (hover to see other rain measurements)
** Current wind speed in m/s (hover to see current wind gust speed)